createdAt,value
2019-01-12T00:04:29.836Z,99581.98
2019-01-12T00:10:34.358Z,99582.96
2019-01-12T00:16:39.033Z,99579.63
2019-01-12T00:22:43.585Z,99580.31
2019-01-12T00:28:48.118Z,99584.80
2019-01-12T00:34:52.660Z,99584.66
2019-01-12T00:40:57.189Z,99577.83
2019-01-12T00:47:01.728Z,99577.49
2019-01-12T00:53:06.403Z,99571.17
2019-01-12T00:59:10.941Z,99559.36
2019-01-12T01:05:15.771Z,99578.65
2019-01-12T01:11:20.303Z,99579.81
2019-01-12T01:17:24.865Z,99574.36
2019-01-12T01:23:29.396Z,99585.97
2019-01-12T01:29:33.925Z,99584.63
2019-01-12T01:35:38.481Z,99585.09
2019-01-12T01:41:43.020Z,99594.02
2019-01-12T01:47:47.623Z,99593.52
2019-01-12T01:53:52.158Z,99592.13
2019-01-12T01:59:56.700Z,99593.47
2019-01-12T02:06:01.254Z,99593.48
2019-01-12T02:12:05.969Z,99598.13
2019-01-12T02:18:10.578Z,99587.52
2019-01-12T02:24:15.156Z,99582.71
2019-01-12T02:30:22.780Z,99586.56
2019-01-12T02:36:27.513Z,99585.08
2019-01-12T02:42:32.122Z,99586.06
2019-01-12T02:48:36.681Z,99586.73
2019-01-12T02:54:41.228Z,99587.67
2019-01-12T03:00:45.804Z,99580.14
2019-01-12T03:06:50.456Z,99576.09
2019-01-12T03:12:55.011Z,99573.75
2019-01-12T03:18:59.547Z,99575.09
2019-01-12T03:25:05.068Z,99572.09
2019-01-12T03:31:09.625Z,99565.42
2019-01-12T03:37:14.207Z,99559.23
2019-01-12T03:43:18.821Z,99556.59
2019-01-12T03:49:23.346Z,99545.28
2019-01-12T03:55:28.036Z,99531.13
2019-01-12T04:01:32.563Z,99535.31
2019-01-12T04:07:37.198Z,99536.77
2019-01-12T04:13:41.754Z,99533.55
2019-01-12T04:19:46.277Z,99520.54
2019-01-12T04:25:52.518Z,99509.84
2019-01-12T04:31:57.086Z,99513.35
2019-01-12T04:38:01.633Z,99504.24
2019-01-12T04:44:06.165Z,99506.03
2019-01-12T04:50:14.232Z,99509.07
2019-01-12T04:56:18.785Z,99502.43
2019-01-12T05:02:23.399Z,99496.77
2019-01-12T05:08:27.935Z,99501.95
2019-01-12T05:14:32.541Z,99492.45
2019-01-12T05:20:37.114Z,99491.63
2019-01-12T05:26:41.649Z,99482.84
2019-01-12T05:32:46.181Z,99488.79
2019-01-12T05:38:50.717Z,99486.96
2019-01-12T05:44:55.246Z,99477.84
2019-01-12T05:50:59.779Z,99481.66
2019-01-12T05:57:04.379Z,99487.51
2019-01-12T06:03:08.931Z,99488.18
2019-01-12T06:09:13.465Z,99495.03
2019-01-12T06:15:18.080Z,99482.86
2019-01-12T06:21:22.606Z,99502.45
2019-01-12T06:27:27.137Z,99498.09
2019-01-12T06:33:31.696Z,99505.91
2019-01-12T06:39:36.205Z,99499.06
2019-01-12T06:45:40.840Z,99491.91
2019-01-12T06:51:45.383Z,99500.63
2019-01-12T06:57:49.923Z,99498.44
2019-01-12T07:03:54.490Z,99507.05
2019-01-12T07:09:59.159Z,99514.03
2019-01-12T07:16:03.712Z,99518.69
2019-01-12T07:22:08.268Z,99509.72
2019-01-12T07:28:12.812Z,99508.27
2019-01-12T07:34:17.367Z,99511.27
2019-01-12T07:40:21.907Z,99496.47
2019-01-12T07:46:26.451Z,99500.98
2019-01-12T07:52:30.986Z,99491.31
2019-01-12T07:58:35.535Z,99487.35
2019-01-12T08:04:40.071Z,99483.22
2019-01-12T08:10:44.683Z,99478.91
2019-01-12T08:16:49.221Z,99469.92
2019-01-12T08:22:53.883Z,99460.60
2019-01-12T08:28:58.421Z,99457.94
2019-01-12T08:35:02.988Z,99448.62
2019-01-12T08:41:07.525Z,99450.45
2019-01-12T08:47:12.152Z,99443.30
2019-01-12T08:53:16.691Z,99428.53
2019-01-12T08:59:22.878Z,99426.19
2019-01-12T09:05:27.471Z,99422.20
2019-01-12T09:11:32.109Z,99420.54
2019-01-12T09:17:36.669Z,99415.89
2019-01-12T09:23:41.199Z,99417.69
2019-01-12T09:29:45.797Z,99405.38
2019-01-12T09:35:50.398Z,99389.78
2019-01-12T09:41:54.948Z,99382.13
2019-01-12T09:47:59.466Z,99381.50
2019-01-12T09:54:04.018Z,99375.83
2019-01-12T10:00:23.534Z,99375.00
2019-01-12T10:06:28.058Z,99364.03
2019-01-12T10:12:32.685Z,99339.25
2019-01-12T10:18:37.203Z,99324.13
2019-01-12T10:24:41.732Z,99310.33
2019-01-12T10:30:46.286Z,99295.55
2019-01-12T10:36:50.879Z,99287.07
2019-01-12T10:42:55.484Z,99279.73
2019-01-12T10:49:00.094Z,99264.14
2019-01-12T10:55:06.452Z,99251.67
2019-01-12T11:01:11.053Z,99247.17
2019-01-12T11:07:18.164Z,99236.04
2019-01-12T11:13:22.778Z,99223.06
2019-01-12T11:19:27.313Z,99212.94
2019-01-12T11:25:31.925Z,99194.36
2019-01-12T11:31:36.724Z,99182.34
2019-01-12T11:37:41.331Z,99166.57
2019-01-12T11:43:45.887Z,99158.59
2019-01-12T11:49:50.442Z,99141.13
2019-01-12T11:55:55.011Z,99128.01
2019-01-12T12:01:59.611Z,99116.27
2019-01-12T12:08:04.312Z,99101.65
2019-01-12T12:14:08.919Z,99086.20
2019-01-12T12:20:20.430Z,99070.77
2019-01-12T12:26:24.959Z,99067.48
2019-01-12T12:32:29.489Z,99060.02
2019-01-12T12:38:34.039Z,99043.55
2019-01-12T12:44:38.596Z,99025.78
2019-01-12T12:50:43.145Z,99002.06
2019-01-12T12:56:47.749Z,98992.37
2019-01-12T13:02:52.356Z,98971.52
2019-01-12T13:08:56.966Z,98967.30
2019-01-12T13:15:01.497Z,98949.54
2019-01-12T13:21:06.160Z,98944.05
2019-01-12T13:27:10.854Z,98931.96
2019-01-12T13:33:15.543Z,98923.45
2019-01-12T13:39:20.084Z,98917.26
2019-01-12T13:45:24.860Z,98907.34
2019-01-12T13:51:29.419Z,98900.38
2019-01-12T13:57:33.934Z,98886.55
2019-01-12T14:03:38.465Z,98875.73
2019-01-12T14:09:42.997Z,98869.55
2019-01-12T14:15:47.618Z,98857.02
2019-01-12T14:21:52.189Z,98843.71
2019-01-12T14:27:56.748Z,98836.35
2019-01-12T14:34:01.443Z,98828.34
2019-01-12T14:40:10.903Z,98825.27
2019-01-12T14:46:16.371Z,98821.68
2019-01-12T14:52:20.927Z,98812.86
2019-01-12T14:58:25.524Z,98809.45
2019-01-12T15:04:30.073Z,98809.02
2019-01-12T15:10:34.674Z,98806.88
2019-01-12T15:16:39.300Z,98796.27
2019-01-12T15:22:43.908Z,98792.56
2019-01-12T15:28:48.433Z,98780.06
2019-01-12T15:34:52.970Z,98776.27
2019-01-12T15:40:57.514Z,98765.87
2019-01-12T15:47:02.038Z,98766.55
2019-01-12T15:53:06.787Z,98759.44
2019-01-12T15:59:11.394Z,98744.57
2019-01-12T16:05:15.996Z,98738.48
2019-01-12T16:11:20.561Z,98738.63
2019-01-12T16:17:25.104Z,98724.01
2019-01-12T16:23:29.701Z,98714.50
2019-01-12T16:29:34.257Z,98701.67
2019-01-12T16:35:38.806Z,98695.53
2019-01-12T16:41:43.341Z,98695.33
2019-01-12T16:47:47.932Z,98678.03
2019-01-12T16:53:52.468Z,98664.34
2019-01-12T16:59:57.813Z,98656.41
2019-01-12T17:06:02.434Z,98645.86
2019-01-12T17:12:07.013Z,98640.52
2019-01-12T17:18:11.652Z,98652.11
2019-01-12T17:24:16.202Z,98644.77
2019-01-12T17:30:25.985Z,98632.92
2019-01-12T17:36:30.522Z,98632.80
2019-01-12T17:42:35.191Z,98646.30
2019-01-12T17:48:39.731Z,98656.12
2019-01-12T17:54:44.418Z,98661.00
2019-01-12T18:00:50.134Z,98663.14
2019-01-12T18:06:54.696Z,98663.39
2019-01-12T18:12:59.287Z,98666.52
2019-01-12T18:19:03.861Z,98655.92
2019-01-12T18:25:11.313Z,98661.15
2019-01-12T18:31:15.857Z,98670.44
2019-01-12T18:37:20.479Z,98667.44
2019-01-12T18:43:25.156Z,98653.09
2019-01-12T18:49:29.710Z,98655.42
2019-01-12T18:55:34.282Z,98648.28
2019-01-12T19:01:38.904Z,98652.39
2019-01-12T19:07:43.566Z,98650.14
2019-01-12T19:13:48.147Z,98640.00
2019-01-12T19:19:52.700Z,98645.28
2019-01-12T19:25:57.346Z,98641.23
2019-01-12T19:32:01.870Z,98638.02
2019-01-12T19:38:06.414Z,98635.70
2019-01-12T19:44:10.971Z,98632.79
2019-01-12T19:50:19.227Z,98629.05
2019-01-12T19:56:23.779Z,98631.45
2019-01-12T20:02:28.350Z,98616.76
2019-01-12T20:08:32.882Z,98606.11
2019-01-12T20:14:37.495Z,98595.27
2019-01-12T20:20:42.111Z,98597.05
2019-01-12T20:26:46.643Z,98599.84
2019-01-12T20:33:21.237Z,98594.58
2019-01-12T20:39:54.249Z,98592.40
2019-01-12T20:46:14.898Z,98583.80
2019-01-12T20:52:43.320Z,98580.08
2019-01-12T20:59:01.019Z,98586.06
2019-01-12T21:05:21.882Z,98587.92
2019-01-12T21:11:48.925Z,98585.88
2019-01-12T21:17:53.485Z,98569.03
2019-01-12T21:23:58.024Z,98567.91
2019-01-12T21:30:02.643Z,98562.70
2019-01-12T21:36:07.251Z,98559.47
2019-01-12T21:42:11.890Z,98550.47
2019-01-12T21:48:16.413Z,98543.67
2019-01-12T21:54:20.959Z,98546.73
2019-01-12T22:00:25.566Z,98548.38
2019-01-12T22:06:30.105Z,98584.08
2019-01-12T22:12:34.713Z,98565.61
2019-01-12T22:18:39.268Z,98563.22
2019-01-12T22:24:43.871Z,98563.80
2019-01-12T22:30:48.429Z,98562.84
2019-01-12T22:36:53.103Z,98560.81
2019-01-12T22:42:57.746Z,98556.34
2019-01-12T22:49:02.343Z,98558.23
2019-01-12T22:55:11.126Z,98542.54
2019-01-12T23:01:20.517Z,98548.17
2019-01-12T23:07:25.150Z,98546.28
2019-01-12T23:13:29.748Z,98546.67
2019-01-12T23:19:35.925Z,98534.39
2019-01-12T23:25:40.463Z,98544.22
2019-01-12T23:31:45.314Z,98539.83
2019-01-12T23:37:49.983Z,98539.74
2019-01-12T23:43:54.576Z,98532.06
2019-01-12T23:49:59.488Z,98536.26
2019-01-12T23:56:04.293Z,98535.69
